Time;durP1;ratioP1;P1;durP2;ratioP2;P2;SDS_P1;SDS_P2;PMS_P1;PMS_P2;Temp;Humidity;BMP_temperature;BMP_pressure;BME280_temperature;BME280_humidity;BME280_pressure;Samples;Min_cycle;Max_cycle;Signal;HPM_P1;HPM_P2
2022/10/16 00:01:10;;;;;;;41.70;25.97;;;10.80;99.90;11.80;97094.00;;;;5030007;28;20197;-69
2022/10/16 00:04:02;;;;;;;35.70;22.93;;;10.80;99.90;11.70;97095.00;;;;5029440;28;20546;-69
2022/10/16 00:06:51;;;;;;;44.30;24.77;;;10.70;99.90;11.70;97092.00;;;;5029228;28;20239;-68
2022/10/16 00:09:39;;;;;;;41.33;24.57;;;10.70;99.90;11.70;97094.00;;;;5025928;28;20220;-68
2022/10/16 00:12:28;;;;;;;38.87;25.63;;;10.70;99.90;11.90;97095.00;;;;5030042;28;20205;-69
2022/10/16 00:15:17;;;;;;;42.30;24.23;;;10.70;99.90;12.10;97103.00;;;;5029602;28;20252;-69
2022/10/16 00:18:07;;;;;;;37.40;24.87;;;10.70;99.90;12.10;97089.00;;;;5028852;28;20201;-69
2022/10/16 00:21:04;;;;;;;41.03;24.17;;;10.80;99.90;12.10;97100.00;;;;5029188;28;20594;-69
2022/10/16 00:23:54;;;;;;;42.90;25.80;;;10.80;99.90;12.20;97095.00;;;;5023187;28;20212;-69
2022/10/16 00:26:43;;;;;;;37.87;23.30;;;10.90;99.90;12.00;97095.00;;;;5030009;28;20204;-69
2022/10/16 00:29:31;;;;;;;36.90;24.53;;;10.90;99.90;11.80;97101.00;;;;5028694;28;20766;-69
2022/10/16 00:32:21;;;;;;;36.40;24.57;;;10.80;99.90;11.80;97095.00;;;;5036969;28;20216;-69
2022/10/16 00:35:09;;;;;;;37.47;23.97;;;10.80;99.90;11.90;97107.00;;;;5036799;28;20224;-69
2022/10/16 00:37:59;;;;;;;37.70;24.17;;;10.80;99.90;11.90;97108.00;;;;5024227;28;20236;-69
2022/10/16 00:40:48;;;;;;;38.43;25.13;;;10.80;99.90;12.10;97096.00;;;;5027266;28;20756;-69
2022/10/16 00:43:41;;;;;;;38.17;24.90;;;10.80;99.90;11.90;97112.00;;;;5024348;28;20284;-69
2022/10/16 00:46:35;;;;;;;44.30;24.07;;;10.80;99.90;11.70;97106.00;;;;5031554;28;20639;-69
2022/10/16 00:49:24;;;;;;;37.63;22.07;;;10.70;99.90;11.40;97115.00;;;;5020237;28;20213;-69
2022/10/16 00:52:14;;;;;;;33.03;22.40;;;10.60;99.90;11.40;97113.00;;;;5032415;28;20764;-69
2022/10/16 00:55:06;;;;;;;31.80;22.83;;;10.50;99.90;11.50;97112.00;;;;5033091;28;20312;-69
2022/10/16 00:57:55;;;;;;;32.17;21.50;;;10.50;99.90;11.50;97114.00;;;;5032736;28;20239;-69
2022/10/16 01:00:44;;;;;;;35.27;23.30;;;10.50;99.90;11.60;97114.00;;;;5031912;28;20216;-69
2022/10/16 01:03:36;;;;;;;34.27;22.20;;;10.50;99.90;11.40;97111.00;;;;5032906;28;20212;-69
2022/10/16 01:06:33;;;;;;;32.37;21.87;;;10.40;99.90;11.20;97113.00;;;;5030983;28;20288;-69
2022/10/16 01:09:31;;;;;;;32.43;21.07;;;10.30;99.90;11.60;97113.00;;;;5031130;28;20713;-69
2022/10/16 01:12:32;;;;;;;35.07;22.07;;;10.30;99.90;11.70;97125.00;;;;5021026;28;20575;-69
2022/10/16 01:15:29;;;;;;;28.63;21.33;;;10.40;99.90;11.50;97123.00;;;;5032906;28;20221;-69
2022/10/16 01:18:24;;;;;;;37.17;19.93;;;10.40;99.90;10.90;97118.00;;;;5031447;28;20205;-71
2022/10/16 01:21:18;;;;;;;31.33;20.90;;;10.30;99.90;11.10;97114.00;;;;5031068;28;20263;-69
2022/10/16 01:24:18;;;;;;;32.60;21.03;;;10.20;99.90;11.60;97124.00;;;;5032258;28;20197;-70
2022/10/16 01:27:12;;;;;;;34.87;21.77;;;10.20;99.90;11.60;97110.00;;;;5032797;28;20201;-70
2022/10/16 01:30:07;;;;;;;31.37;21.77;;;10.30;99.90;11.60;97111.00;;;;5032185;28;20637;-69
2022/10/16 01:33:03;;;;;;;30.63;20.17;;;10.40;99.90;11.80;97118.00;;;;5027654;28;20216;-69
2022/10/16 01:35:55;;;;;;;32.20;19.47;;;10.40;99.90;11.60;97119.00;;;;5041127;28;20310;-70
2022/10/16 01:38:48;;;;;;;28.53;18.23;;;10.50;99.90;11.40;97103.00;;;;5023979;28;20655;-69
2022/10/16 01:41:44;;;;;;;32.90;18.83;;;10.40;99.90;10.90;97103.00;;;;5032493;28;20619;-69
2022/10/16 01:44:36;;;;;;;29.87;18.70;;;10.30;99.90;10.90;97109.00;;;;5019880;28;20272;-70
2022/10/16 01:47:27;;;;;;;27.27;17.23;;;10.20;99.90;11.20;97105.00;;;;5032261;28;20233;-69
2022/10/16 01:50:19;;;;;;;31.23;18.17;;;10.30;99.90;11.00;97109.00;;;;5031903;28;20236;-70
2022/10/16 01:53:12;;;;;;;26.37;16.87;;;10.20;99.90;11.20;97116.00;;;;5036953;28;20573;-69
2022/10/16 01:56:04;;;;;;;26.47;16.93;;;10.20;99.90;10.80;97115.00;;;;5033384;23;20724;-88
2022/10/16 01:58:57;;;;;;;29.67;17.17;;;10.10;99.90;10.90;97111.00;;;;4991242;28;20210;-88
2022/10/16 02:01:52;;;;;;;26.23;17.77;;;10.10;99.90;11.20;97113.00;;;;4991472;28;20206;-87
2022/10/16 02:04:46;;;;;;;28.20;18.60;;;10.10;99.90;11.60;97115.00;;;;5016017;28;20248;-88
2022/10/16 02:07:35;;;;;;;31.63;19.30;;;10.20;99.90;11.80;97115.00;;;;5018263;28;20217;-89
2022/10/16 02:10:25;;;;;;;25.97;17.17;;;10.30;99.90;11.60;97112.00;;;;5011723;28;20256;-88
2022/10/16 02:13:19;;;;;;;28.50;19.00;;;10.30;99.90;11.80;97117.00;;;;5008711;28;20697;-88
2022/10/16 02:16:08;;;;;;;25.97;18.30;;;10.40;99.90;11.70;97119.00;;;;5005686;28;20588;-88
2022/10/16 02:18:58;;;;;;;28.67;18.57;;;10.50;99.90;11.90;97114.00;;;;5000890;28;20206;-88
2022/10/16 02:21:52;;;;;;;26.70;18.77;;;10.50;99.90;12.00;97126.00;;;;5011239;28;20228;-88
2022/10/16 02:24:52;;;;;;;29.70;18.77;;;10.50;99.90;12.00;97113.00;;;;5011001;28;20202;-88
2022/10/16 02:27:49;;;;;;;29.23;18.20;;;10.60;99.90;11.60;97118.00;;;;4995765;28;20218;-88
2022/10/16 02:30:43;;;;;;;25.07;15.83;;;10.60;99.90;11.40;97114.00;;;;5002885;28;20194;-88
2022/10/16 02:33:34;;;;;;;29.17;17.93;;;10.50;99.90;11.70;97112.00;;;;5002637;28;20228;-89
2022/10/16 02:36:25;;;;;;;28.87;17.63;;;10.50;99.90;11.80;97111.00;;;;5000971;28;20194;-88
2022/10/16 02:39:14;;;;;;;22.73;15.23;;;10.50;99.90;11.60;97110.00;;;;5010848;28;20209;-88
2022/10/16 02:42:03;;;;;;;24.50;15.87;;;10.50;99.90;11.30;97119.00;;;;5009005;28;20224;-86
2022/10/16 02:44:52;;;;;;;31.67;17.50;;;10.40;99.90;11.10;97109.00;;;;5004182;28;20214;-86
2022/10/16 02:47:41;;;;;;;27.77;16.83;;;10.30;99.90;11.30;97124.00;;;;5003641;28;20206;-88
2022/10/16 02:50:30;;;;;;;27.93;14.80;;;10.30;99.90;11.60;97126.00;;;;4997022;28;20284;-86
2022/10/16 02:53:20;;;;;;;26.27;17.23;;;10.30;99.90;11.80;97124.00;;;;5011744;28;20229;-86
2022/10/16 02:56:09;;;;;;;23.17;16.13;;;10.30;99.90;11.80;97126.00;;;;5000818;28;20210;-86
2022/10/16 02:58:57;;;;;;;23.67;16.63;;;10.40;99.90;11.80;97128.00;;;;4997427;28;20233;-87
2022/10/16 03:01:46;;;;;;;23.70;15.63;;;10.50;99.90;11.80;97122.00;;;;4999227;28;20209;-86
2022/10/16 03:04:35;;;;;;;22.20;13.73;;;10.50;99.90;11.90;97131.00;;;;5010695;28;20202;-86
2022/10/16 03:07:24;;;;;;;25.90;15.20;;;10.50;99.90;11.70;97124.00;;;;5011154;28;20256;-86
2022/10/16 03:10:14;;;;;;;26.17;15.50;;;10.50;99.90;12.00;97117.00;;;;5010345;28;20206;-86
2022/10/16 03:13:03;;;;;;;25.40;16.40;;;10.60;99.90;12.00;97123.00;;;;5011363;28;20233;-86
2022/10/16 03:15:52;;;;;;;25.47;15.60;;;10.70;99.90;12.10;97124.00;;;;5002470;28;20202;-86
2022/10/16 03:18:41;;;;;;;22.60;15.63;;;10.70;99.90;12.10;97125.00;;;;4998149;28;20249;-86
2022/10/16 03:21:29;;;;;;;33.47;15.70;;;10.80;99.90;12.00;97123.00;;;;5003280;28;20256;-87
2022/10/16 03:24:18;;;;;;;20.10;13.50;;;10.80;99.90;11.80;97126.00;;;;4997155;28;20284;-87
2022/10/16 03:27:09;;;;;;;18.47;13.43;;;10.70;99.90;11.60;97131.00;;;;5005048;28;20194;-87
2022/10/16 03:29:57;;;;;;;16.50;13.33;;;10.60;99.90;11.50;97139.00;;;;5002436;28;20701;-87
2022/10/16 03:32:46;;;;;;;18.77;12.87;;;10.50;99.90;11.50;97136.00;;;;5007992;28;20230;-88
2022/10/16 03:35:35;;;;;;;18.87;13.00;;;10.50;99.90;11.40;97138.00;;;;4997790;28;20700;-87
2022/10/16 03:38:24;;;;;;;21.10;14.20;;;10.40;99.90;11.70;97143.00;;;;5010304;28;20202;-87
2022/10/16 03:41:13;;;;;;;26.23;13.23;;;10.40;99.90;11.80;97146.00;;;;5006581;28;20226;-86
2022/10/16 03:44:03;;;;;;;23.93;16.30;;;10.50;99.90;12.10;97158.00;;;;5007724;28;20217;-86
2022/10/16 03:46:51;;;;;;;19.40;14.10;;;10.60;99.90;12.20;97159.00;;;;5010139;28;20209;-86
2022/10/16 03:49:40;;;;;;;32.97;16.83;;;10.60;99.90;12.30;97158.00;;;;5009196;28;20380;-87
2022/10/16 03:52:29;;;;;;;31.53;17.23;;;10.70;99.90;12.30;97153.00;;;;5009276;28;20234;-86
2022/10/16 03:55:18;;;;;;;20.10;13.67;;;10.80;99.90;11.90;97154.00;;;;5006181;28;20210;-86
2022/10/16 03:58:06;;;;;;;20.93;12.43;;;10.80;99.90;11.80;97164.00;;;;5009008;28;20229;-87
2022/10/16 04:00:57;;;;;;;22.57;13.00;;;10.70;99.90;11.50;97158.00;;;;4999157;28;20644;-87
2022/10/16 04:03:45;;;;;;;19.00;14.07;;;10.70;99.90;11.60;97163.00;;;;5004775;28;20213;-87
2022/10/16 04:06:34;;;;;;;17.93;11.90;;;10.60;99.90;11.60;97164.00;;;;4998608;28;20248;-87
2022/10/16 04:09:23;;;;;;;21.20;13.20;;;10.60;99.90;11.50;97163.00;;;;5005842;28;20293;-87
2022/10/16 04:12:12;;;;;;;18.23;11.07;;;10.60;99.90;11.60;97154.00;;;;5003615;28;20230;-88
2022/10/16 04:15:00;;;;;;;21.57;12.50;;;10.60;99.90;11.60;97163.00;;;;5003037;28;20218;-87
2022/10/16 04:17:51;;;;;;;20.07;13.50;;;10.60;99.90;11.60;97160.00;;;;5006351;28;20598;-86
2022/10/16 04:20:40;;;;;;;20.20;12.27;;;10.60;99.90;11.60;97165.00;;;;5009058;28;20305;-86
2022/10/16 04:23:28;;;;;;;19.33;12.77;;;10.60;99.90;11.90;97158.00;;;;5006899;28;20223;-86
2022/10/16 04:26:17;;;;;;;21.10;13.23;;;10.60;99.90;12.00;97158.00;;;;5008263;28;20214;-86
2022/10/16 04:29:06;;;;;;;20.77;13.93;;;10.70;99.90;12.20;97166.00;;;;5006502;28;20251;-86
2022/10/16 04:31:55;;;;;;;24.70;14.57;;;10.80;99.90;12.30;97169.00;;;;5001866;28;20223;-86
2022/10/16 04:34:45;;;;;;;27.13;14.63;;;11.50;99.90;12.10;97162.00;;;;4999419;28;20206;-87
2022/10/16 04:37:34;;;;;;;19.10;12.37;;;10.80;99.90;11.90;97162.00;;;;5003842;28;20201;-87
2022/10/16 04:40:23;;;;;;;20.03;10.70;;;10.80;99.90;11.80;97164.00;;;;5002352;28;20253;-87
2022/10/16 04:43:12;;;;;;;17.53;11.40;;;10.70;99.90;11.70;97169.00;;;;5004039;28;20804;-87
2022/10/16 04:46:01;;;;;;;20.33;14.47;;;10.70;99.90;11.90;97169.00;;;;5000979;28;20209;-86
2022/10/16 04:48:50;;;;;;;24.57;14.80;;;10.70;99.90;12.00;97167.00;;;;5011770;28;20210;-86
2022/10/16 04:51:40;;;;;;;28.37;15.63;;;10.70;99.90;11.90;97170.00;;;;5009434;28;20241;-85
2022/10/16 04:54:29;;;;;;;24.00;12.33;;;10.70;99.90;11.80;97169.00;;;;5011962;28;20214;-86
2022/10/16 04:57:18;;;;;;;17.73;10.73;;;10.70;99.90;11.70;97171.00;;;;5002948;28;20272;-86
2022/10/16 05:00:08;;;;;;;15.50;10.97;;;10.70;99.90;11.80;97175.00;;;;5008941;28;20206;-86
2022/10/16 05:02:59;;;;;;;16.70;11.33;;;10.70;99.90;11.80;97167.00;;;;5006324;28;20233;-86
2022/10/16 05:05:48;;;;;;;18.97;12.40;;;10.60;99.90;11.60;97174.00;;;;5005334;28;20205;-87
2022/10/16 05:08:38;;;;;;;21.77;11.90;;;10.40;99.90;11.60;97178.00;;;;5012166;28;20700;-87
2022/10/16 05:11:27;;;;;;;18.63;11.30;;;10.50;99.90;11.50;97178.00;;;;5005255;28;20217;-87
2022/10/16 05:14:16;;;;;;;20.53;11.87;;;10.50;99.90;11.60;97175.00;;;;5011703;28;20586;-87
2022/10/16 05:17:05;;;;;;;16.80;11.90;;;10.50;99.90;11.80;97170.00;;;;4994000;28;20218;-87
2022/10/16 05:19:54;;;;;;;18.40;12.43;;;10.60;99.90;11.90;97182.00;;;;5009892;28;20206;-87
2022/10/16 05:22:42;;;;;;;14.73;10.60;;;10.60;99.90;11.90;97190.00;;;;5004828;28;20234;-87
2022/10/16 05:25:33;;;;;;;20.63;11.67;;;10.60;99.90;12.00;97186.00;;;;5002790;28;20202;-87
2022/10/16 05:28:22;;;;;;;17.50;11.83;;;10.60;99.90;11.80;97196.00;;;;5001153;28;20210;-87
2022/10/16 05:31:11;;;;;;;17.13;11.23;;;10.60;99.90;11.90;97186.00;;;;4999267;28;20194;-87
2022/10/16 05:34:00;;;;;;;15.13;10.30;;;10.60;99.90;12.00;97185.00;;;;5001427;28;20202;-87
2022/10/16 05:36:49;;;;;;;18.03;12.33;;;10.60;99.90;11.90;97186.00;;;;5003401;28;20591;-86
2022/10/16 05:39:38;;;;;;;17.07;10.97;;;10.60;99.90;11.90;97183.00;;;;5010356;28;20210;-87
2022/10/16 05:42:29;;;;;;;23.97;13.27;;;10.60;99.90;11.50;97193.00;;;;5010269;28;20252;-87
2022/10/16 05:45:17;;;;;;;21.53;11.40;;;10.60;99.90;11.40;97195.00;;;;5007878;28;20206;-87
2022/10/16 05:48:06;;;;;;;16.80;9.73;;;10.60;99.90;11.30;97194.00;;;;5002192;28;20207;-87
2022/10/16 05:50:59;;;;;;;20.67;12.27;;;10.50;99.90;11.60;97211.00;;;;5003908;28;20210;-86
2022/10/16 05:53:48;;;;;;;18.37;12.60;;;10.50;99.90;11.70;97201.00;;;;5006109;28;20218;-86
2022/10/16 05:56:37;;;;;;;15.07;9.87;;;10.60;99.90;11.60;97213.00;;;;5005204;28;20632;-87
2022/10/16 05:59:27;;;;;;;14.43;10.60;;;10.50;99.90;11.30;97226.00;;;;5005763;28;20194;-87
2022/10/16 06:02:16;;;;;;;18.08;13.02;;;10.40;99.90;11.00;97227.00;;;;5004362;28;20419;-87
2022/10/16 06:05:06;;;;;;;23.07;11.17;;;10.40;99.90;11.40;97242.00;;;;5003870;28;20199;-87
2022/10/16 06:07:54;;;;;;;18.40;10.90;;;10.40;99.90;11.80;97249.00;;;;5002483;28;20202;-87
2022/10/16 06:10:43;;;;;;;19.57;11.47;;;10.40;99.90;12.00;97256.00;;;;5001237;28;20206;-87
2022/10/16 06:13:32;;;;;;;17.93;11.47;;;10.60;99.90;12.00;97252.00;;;;5002830;28;20222;-87
2022/10/16 06:16:25;;;;;;;16.77;11.37;;;10.70;99.90;12.20;97254.00;;;;5003655;28;20202;-87
2022/10/16 06:19:16;;;;;;;17.30;10.20;;;10.80;99.90;11.90;97263.00;;;;5006181;28;20584;-88
2022/10/16 06:22:04;;;;;;;16.07;10.70;;;10.80;99.90;11.70;97252.00;;;;5005972;28;20231;-87
2022/10/16 06:24:53;;;;;;;15.63;10.53;;;10.80;99.90;11.60;97258.00;;;;5002968;28;20276;-87
2022/10/16 06:27:43;;;;;;;12.30;8.70;;;10.70;99.90;11.60;97268.00;;;;5005894;28;20288;-84
2022/10/16 06:30:31;;;;;;;17.77;10.07;;;10.70;99.90;11.80;97270.00;;;;5002499;28;20199;-88
2022/10/16 06:33:22;;;;;;;12.80;9.40;;;10.80;99.90;11.80;97277.00;;;;4999338;28;20587;-87
2022/10/16 06:36:14;;;;;;;16.63;10.27;;;10.80;99.90;11.80;97288.00;;;;5004583;28;20200;-85
2022/10/16 06:39:02;;;;;;;11.37;7.97;;;10.80;99.90;11.70;97291.00;;;;4999204;28;20598;-87
2022/10/16 06:41:51;;;;;;;17.40;8.50;;;10.80;99.90;11.90;97295.00;;;;5000029;28;20230;-87
2022/10/16 06:44:41;;;;;;;16.10;10.07;;;10.80;99.90;11.90;97297.00;;;;5003638;28;20199;-87
2022/10/16 06:47:30;;;;;;;13.93;9.10;;;10.80;99.90;12.10;97295.00;;;;4997052;28;20212;-88
2022/10/16 06:50:20;;;;;;;15.47;9.90;;;10.90;99.90;12.20;97294.00;;;;5011739;28;20693;-87
2022/10/16 06:53:09;;;;;;;15.90;9.10;;;11.00;99.90;12.30;97295.00;;;;5009486;28;20230;-87
2022/10/16 06:55:58;;;;;;;12.00;9.10;;;11.10;99.90;12.20;97303.00;;;;5003088;28;20672;-88
2022/10/16 06:58:48;;;;;;;16.07;11.17;;;11.20;99.90;12.50;97302.00;;;;5000758;28;20270;-88
2022/10/16 07:01:37;;;;;;;18.20;11.23;;;11.30;99.90;12.70;97301.00;;;;5003896;28;20219;-88
2022/10/16 07:04:25;;;;;;;15.87;11.63;;;11.40;99.90;13.10;97306.00;;;;5003643;28;20245;-88
2022/10/16 07:07:16;;;;;;;19.57;11.73;;;11.50;99.90;13.00;97304.00;;;;5002855;28;20288;-89
2022/10/16 07:10:06;;;;;;;15.63;10.10;;;11.70;99.90;13.10;97300.00;;;;5007361;28;20210;-88
2022/10/16 07:12:54;;;;;;;12.17;9.27;;;11.80;99.90;12.50;97300.00;;;;4999122;28;20611;-84
2022/10/16 07:15:52;;;;;;;17.70;10.90;;;11.80;99.90;12.90;97303.00;;;;5008949;28;20206;-88
2022/10/16 07:18:42;;;;;;;16.20;10.47;;;11.80;99.90;13.00;97312.00;;;;5007775;28;20213;-88
2022/10/16 07:21:35;;;;;;;18.13;10.80;;;11.90;99.90;13.00;97316.00;;;;5005112;28;20209;-88
2022/10/16 07:24:26;;;;;;;23.17;10.23;;;12.00;99.90;13.00;97313.00;;;;4995357;28;20201;-87
2022/10/16 07:27:16;;;;;;;21.13;12.90;;;12.00;99.90;13.60;97309.00;;;;5003544;28;20214;-87
2022/10/16 07:30:07;;;;;;;18.13;13.37;;;12.10;99.90;13.90;97308.00;;;;5010137;28;20206;-87
2022/10/16 07:32:55;;;;;;;17.67;12.73;;;12.30;99.90;14.00;97311.00;;;;5009561;28;20234;-87
2022/10/16 07:35:51;;;;;;;21.23;15.23;;;12.50;99.90;14.40;97318.00;;;;5005522;28;20206;-86
2022/10/16 07:38:42;;;;;;;23.50;15.00;;;12.70;99.90;14.70;97315.00;;;;5000417;28;20258;-87
2022/10/16 07:41:36;;;;;;;25.13;17.23;;;12.90;99.90;14.80;97315.00;;;;5003457;28;20201;-88
2022/10/16 07:44:25;;;;;;;22.27;14.87;;;12.20;99.90;14.70;97318.00;;;;5006039;28;20205;-86
2022/10/16 07:47:13;;;;;;;19.43;15.00;;;13.30;99.90;14.80;97320.00;;;;4999600;28;20202;-87
2022/10/16 07:50:02;;;;;;;20.13;14.73;;;13.40;99.90;15.00;97317.00;;;;5009100;28;20214;-87
2022/10/16 07:52:51;;;;;;;21.23;14.67;;;13.50;99.90;15.00;97323.00;;;;5000842;28;20750;-87
2022/10/16 07:55:40;;;;;;;21.70;14.27;;;13.70;99.90;15.30;97329.00;;;;5000701;28;20206;-88
2022/10/16 07:58:31;;;;;;;18.33;13.17;;;13.80;99.90;15.40;97329.00;;;;5009801;28;20206;-87
2022/10/16 08:01:20;;;;;;;21.23;14.33;;;14.00;99.90;15.30;97337.00;;;;5009227;28;20205;-88
2022/10/16 08:04:10;;;;;;;23.50;13.57;;;14.10;99.90;15.60;97319.00;;;;5009373;28;20198;-87
2022/10/16 08:06:59;;;;;;;24.00;14.53;;;14.20;99.90;15.80;97317.00;;;;5004242;28;20210;-87
2022/10/16 08:12:39;;;;;;;22.33;13.93;;;14.50;99.90;16.00;97313.00;;;;4988952;28;20222;-85
2022/10/16 08:15:29;;;;;;;19.63;13.73;;;14.60;99.90;16.50;97322.00;;;;5004427;28;20209;-86
2022/10/16 08:18:18;;;;;;;18.93;13.13;;;14.80;99.90;16.70;97326.00;;;;5002587;28;20273;-85
2022/10/16 08:21:13;;;;;;;19.50;13.33;;;15.00;99.90;17.10;97327.00;;;;5003132;28;20267;-85
2022/10/16 08:24:04;;;;;;;17.20;12.50;;;15.20;99.90;17.60;97329.00;;;;5000702;28;20231;-85
2022/10/16 08:26:55;;;;;;;19.00;12.97;;;15.50;99.90;17.90;97326.00;;;;4999962;28;20235;-85
2022/10/16 08:29:43;;;;;;;16.23;12.63;;;15.70;99.90;18.10;97336.00;;;;5006745;28;20717;-85
2022/10/16 08:32:34;;;;;;;16.43;11.97;;;16.00;99.90;18.20;97339.00;;;;5002042;28;20234;-86
2022/10/16 08:35:22;;;;;;;12.83;10.43;;;16.20;99.90;18.50;97346.00;;;;5002851;28;20214;-86
2022/10/16 08:38:11;;;;;;;15.07;11.47;;;16.40;99.90;18.50;97335.00;;;;5002008;28;20209;-85
2022/10/16 08:41:24;;;;;;;15.10;11.40;;;16.60;99.90;18.70;97347.00;;;;5003989;28;20261;-85
2022/10/16 08:44:45;;;;;;;15.40;12.30;;;16.70;99.90;18.90;97344.00;;;;5001086;28;20248;-86
2022/10/16 08:47:50;;;;;;;18.00;10.80;;;17.00;99.90;19.20;97341.00;;;;5013763;28;20206;-85
2022/10/16 08:50:41;;;;;;;16.43;11.60;;;17.20;99.90;19.10;97353.00;;;;5012493;28;20690;-85
2022/10/16 08:53:37;;;;;;;17.63;11.77;;;17.30;99.90;19.20;97349.00;;;;5008627;28;20679;-86
2022/10/16 08:56:28;;;;;;;14.93;11.20;;;17.40;99.90;19.50;97353.00;;;;5010916;28;20245;-86
2022/10/16 08:59:18;;;;;;;13.80;10.07;;;17.50;99.90;19.30;97353.00;;;;5004910;28;20202;-85
2022/10/16 09:02:28;;;;;;;16.73;11.73;;;17.60;99.90;19.50;97353.00;;;;5004441;28;20202;-86
2022/10/16 09:05:35;;;;;;;14.47;10.67;;;17.70;99.90;19.70;97353.00;;;;5006830;28;20201;-85
2022/10/16 09:08:38;;;;;;;17.97;12.03;;;17.80;99.90;19.70;97361.00;;;;5011338;28;20198;-85
2022/10/16 09:11:40;;;;;;;15.57;11.97;;;18.00;99.90;20.20;97358.00;;;;5006724;28;20679;-84
2022/10/16 09:14:52;;;;;;;19.20;11.30;;;18.10;99.90;20.10;97344.00;;;;5007925;28;20779;-84
2022/10/16 09:17:54;;;;;;;21.70;12.47;;;18.20;99.90;20.20;97356.00;;;;4998909;28;20285;-84
2022/10/16 09:20:52;;;;;;;16.10;11.10;;;18.40;99.90;20.50;97359.00;;;;5011063;28;20201;-85
2022/10/16 09:23:40;;;;;;;13.03;10.27;;;18.50;99.90;20.60;97351.00;;;;5003672;28;20315;-84
2022/10/16 09:26:29;;;;;;;15.33;11.10;;;18.60;99.90;20.70;97353.00;;;;5011195;28;20206;-85
2022/10/16 09:29:21;;;;;;;13.10;10.37;;;18.80;99.90;20.80;97354.00;;;;5002884;28;20303;-87
2022/10/16 09:32:15;;;;;;;15.13;11.00;;;18.90;99.90;21.30;97356.00;;;;5002701;28;20201;-84
2022/10/16 09:35:05;;;;;;;17.77;11.40;;;19.10;99.90;21.10;97347.00;;;;5005906;28;20206;-86
2022/10/16 09:37:56;;;;;;;14.67;10.13;;;19.20;99.90;21.00;97355.00;;;;5004926;28;20213;-84
2022/10/16 09:40:45;;;;;;;16.47;11.37;;;19.30;99.90;21.30;97365.00;;;;5003321;28;20217;-86
2022/10/16 09:43:41;;;;;;;16.00;11.13;;;19.40;99.90;21.40;97361.00;;;;5012581;28;20229;-86
2022/10/16 09:46:33;;;;;;;15.90;10.37;;;19.50;99.90;21.50;97366.00;;;;5006775;28;20202;-88
2022/10/16 09:49:25;;;;;;;11.70;9.90;;;19.60;99.90;21.60;97371.00;;;;5006051;28;20202;-87
2022/10/16 09:52:16;;;;;;;12.93;10.17;;;19.70;99.90;21.90;97363.00;;;;5004520;28;20612;-87
2022/10/16 09:55:17;;;;;;;13.93;10.07;;;19.80;99.90;22.00;97372.00;;;;5002374;28;20686;-87
2022/10/16 09:58:14;;;;;;;14.00;10.40;;;19.90;99.90;22.40;97376.00;;;;5002350;28;20206;-88
2022/10/16 10:01:03;;;;;;;14.83;10.33;;;20.10;99.90;22.50;97372.00;;;;4999543;28;20203;-88
2022/10/16 10:04:00;;;;;;;13.23;9.60;;;20.30;99.90;22.60;97371.00;;;;5005035;28;20638;-87
2022/10/16 10:06:52;;;;;;;13.10;9.23;;;20.40;99.90;22.70;97372.00;;;;5003934;28;20202;-88
2022/10/16 10:09:45;;;;;;;14.87;10.13;;;20.60;99.90;22.80;97377.00;;;;5005653;28;20580;-87
2022/10/16 10:12:45;;;;;;;14.47;11.13;;;20.80;99.90;22.90;97369.00;;;;5002458;28;20221;-88
2022/10/16 10:15:42;;;;;;;14.07;9.00;;;20.80;99.90;23.20;97368.00;;;;5001732;28;20668;-87
2022/10/16 10:18:33;;;;;;;15.33;10.70;;;21.10;99.90;23.50;97360.00;;;;5004528;28;20199;-88
2022/10/16 10:21:23;;;;;;;11.93;8.70;;;21.20;99.90;23.60;97360.00;;;;5009485;28;20205;-88
2022/10/16 10:24:15;;;;;;;12.90;9.93;;;21.50;99.90;24.20;97356.00;;;;5009397;28;20222;-88
2022/10/16 10:27:12;;;;;;;13.30;9.07;;;21.80;99.90;24.60;97357.00;;;;5010391;28;20203;-88
2022/10/16 10:30:09;;;;;;;11.97;10.43;;;22.30;99.90;24.90;97350.00;;;;5008945;28;20240;-88
2022/10/16 10:33:18;;;;;;;11.90;9.87;;;22.70;99.90;25.30;97353.00;;;;5005094;28;20218;-88
2022/10/16 10:36:21;;;;;;;9.03;8.13;;;23.10;99.90;25.40;97341.00;;;;5008525;28;20223;-88
2022/10/16 10:39:18;;;;;;;11.27;9.03;;;23.40;99.90;25.70;97340.00;;;;5011153;28;20678;-88
2022/10/16 10:42:23;;;;;;;10.67;8.77;;;23.60;99.90;26.60;97342.00;;;;5010345;28;20230;-89
2022/10/16 10:45:28;;;;;;;9.90;8.83;;;24.00;99.90;26.60;97337.00;;;;5009786;28;20216;-89
2022/10/16 10:48:34;;;;;;;13.00;8.83;;;23.60;99.90;27.00;97341.00;;;;5008974;28;20200;-89
2022/10/16 10:51:31;;;;;;;14.83;9.40;;;24.80;99.90;27.20;97336.00;;;;5011623;28;20693;-89
2022/10/16 10:54:31;;;;;;;8.93;8.00;;;25.00;99.90;27.80;97340.00;;;;5016747;28;20230;-89
2022/10/16 10:57:36;;;;;;;8.70;7.07;;;25.40;99.90;28.00;97342.00;;;;5010843;28;20528;-90
2022/10/16 11:00:32;;;;;;;9.30;7.90;;;25.80;99.90;28.10;97331.00;;;;5011681;28;20681;-90
2022/10/16 11:03:41;;;;;;;9.93;7.37;;;25.60;97.70;27.80;97334.00;;;;5010948;28;20231;-90
2022/10/16 11:06:34;;;;;;;9.10;7.43;;;26.40;94.60;27.70;97333.00;;;;5007640;28;20203;-89
2022/10/16 11:09:27;;;;;;;11.43;7.70;;;26.10;94.90;27.60;97338.00;;;;5008800;28;20216;-90
2022/10/16 11:12:21;;;;;;;9.33;7.80;;;26.10;93.20;28.60;97343.00;;;;5004780;28;20207;-89
2022/10/16 11:15:17;;;;;;;10.73;8.25;;;26.20;93.80;29.20;97335.00;;;;5007796;28;20215;-89
2022/10/16 11:18:13;;;;;;;8.18;7.13;;;26.60;94.10;28.70;97339.00;;;;5008573;28;20924;-91
2022/10/16 11:21:08;;;;;;;11.85;8.93;;;26.90;91.90;29.00;97334.00;;;;5008328;28;20252;-89
2022/10/16 11:24:01;;;;;;;10.57;8.02;;;27.00;92.40;29.00;97340.00;;;;5006331;28;20222;-89
2022/10/16 11:26:53;;;;;;;9.70;8.10;;;27.20;90.60;28.40;97345.00;;;;5002860;28;20332;-89
2022/10/16 11:29:49;;;;;;;8.80;7.38;;;27.20;89.40;29.20;97335.00;;;;5012460;28;20199;-90
2022/10/16 11:32:58;;;;;;;11.27;8.68;;;27.20;89.60;29.30;97334.00;;;;5016566;28;20253;-90
2022/10/16 11:35:55;;;;;;;12.43;8.45;;;27.40;86.40;28.40;97336.00;;;;5006918;28;20596;-88
2022/10/16 11:38:54;;;;;;;9.43;7.47;;;27.20;83.20;29.50;97335.00;;;;5019153;28;20219;-90
2022/10/16 11:41:49;;;;;;;9.35;8.18;;;27.20;86.10;30.20;97339.00;;;;5001470;28;20687;-93
2022/10/16 11:44:52;;;;;;;8.80;7.88;;;27.50;86.40;30.10;97328.00;;;;4997042;28;20564;-90
2022/10/16 11:47:46;;;;;;;9.05;8.05;;;27.80;83.70;30.60;97329.00;;;;5005528;28;20265;-90
2022/10/16 11:50:54;;;;;;;10.00;7.93;;;28.10;83.70;29.90;97327.00;;;;5004409;28;20212;-91
2022/10/16 11:53:52;;;;;;;10.20;9.10;;;28.20;81.20;30.20;97330.00;;;;5005566;28;20625;-90
2022/10/16 11:56:44;;;;;;;12.13;8.32;;;28.30;79.30;30.60;97329.00;;;;5005292;28;20244;-90
2022/10/16 11:59:42;;;;;;;10.00;8.48;;;28.40;79.90;29.90;97327.00;;;;5004364;28;20197;-89
2022/10/16 12:02:45;;;;;;;10.52;8.15;;;28.40;74.90;29.20;97320.00;;;;5002742;28;20199;-89
2022/10/16 12:05:53;;;;;;;10.07;9.07;;;28.30;74.90;30.00;97338.00;;;;5003131;28;20216;-90
2022/10/16 12:08:44;;;;;;;8.10;7.28;;;28.20;74.30;30.30;97312.00;;;;5005294;28;20200;-89
2022/10/16 12:11:38;;;;;;;9.38;7.90;;;28.20;73.20;30.90;97311.00;;;;5002452;28;21535;-91
2022/10/16 12:14:40;;;;;;;12.68;9.00;;;28.40;72.60;30.50;97315.00;;;;5004059;28;20248;-89
2022/10/16 12:17:50;;;;;;;10.75;7.47;;;28.60;72.50;30.80;97311.00;;;;5005801;28;20699;-89
2022/10/16 12:20:45;;;;;;;10.52;7.90;;;28.90;71.30;32.10;97314.00;;;;5007214;28;20201;-89
2022/10/16 12:23:48;;;;;;;9.18;8.27;;;29.20;72.30;32.40;97312.00;;;;5011276;28;20714;-89
2022/10/16 12:26:41;;;;;;;7.97;7.15;;;29.70;71.20;32.70;97315.00;;;;5003463;28;20245;-90
2022/10/16 12:29:36;;;;;;;9.13;7.55;;;30.20;69.40;32.90;97314.00;;;;5003632;28;20202;-89
2022/10/16 12:32:31;;;;;;;9.50;7.97;;;30.50;67.40;33.50;97314.00;;;;5000389;28;20199;-90
2022/10/16 12:35:45;;;;;;;8.93;8.02;;;30.80;67.10;32.60;97322.00;;;;4998033;28;20221;-90